sensor_id;sensor_type;location;lat;lon;timestamp;temperature;humidity
8067;DHT22;4076;48.076;9.118;2023-04-21T00:00:16;3.00;99.90
8067;DHT22;4076;48.076;9.118;2023-04-21T00:02:42;2.90;99.90
8067;DHT22;4076;48.076;9.118;2023-04-21T00:05:09;2.80;99.90
8067;DHT22;4076;48.076;9.118;2023-04-21T00:07:35;2.70;99.90
8067;DHT22;4076;48.076;9.118;2023-04-21T00:10:06;2.70;99.90
8067;DHT22;4076;48.076;9.118;2023-04-21T00:12:32;2.70;99.90
8067;DHT22;4076;48.076;9.118;2023-04-21T00:14:58;2.70;99.90
8067;DHT22;4076;48.076;9.118;2023-04-21T00:17:24;2.70;99.90
8067;DHT22;4076;48.076;9.118;2023-04-21T00:19:49;2.70;99.90
8067;DHT22;4076;48.076;9.118;2023-04-21T00:22:16;2.70;99.90
8067;DHT22;4076;48.076;9.118;2023-04-21T00:24:42;2.80;99.90
8067;DHT22;4076;48.076;9.118;2023-04-21T00:27:08;2.90;99.90
8067;DHT22;4076;48.076;9.118;2023-04-21T00:29:34;2.80;99.90
8067;DHT22;4076;48.076;9.118;2023-04-21T00:31:59;2.80;99.90
8067;DHT22;4076;48.076;9.118;2023-04-21T00:34:26;2.80;99.90
8067;DHT22;4076;48.076;9.118;2023-04-21T00:36:51;2.80;99.90
8067;DHT22;4076;48.076;9.118;2023-04-21T00:39:17;2.80;99.90
8067;DHT22;4076;48.076;9.118;2023-04-21T00:41:43;2.80;99.90
8067;DHT22;4076;48.076;9.118;2023-04-21T00:44:09;2.90;99.90
8067;DHT22;4076;48.076;9.118;2023-04-21T00:46:35;3.00;99.90
8067;DHT22;4076;48.076;9.118;2023-04-21T00:49:06;3.00;99.90
8067;DHT22;4076;48.076;9.118;2023-04-21T00:51:33;3.00;99.90
8067;DHT22;4076;48.076;9.118;2023-04-21T00:54:00;3.00;99.90
8067;DHT22;4076;48.076;9.118;2023-04-21T00:56:27;3.00;99.90
8067;DHT22;4076;48.076;9.118;2023-04-21T00:58:57;3.10;99.90
8067;DHT22;4076;48.076;9.118;2023-04-21T01:01:23;3.00;99.90
8067;DHT22;4076;48.076;9.118;2023-04-21T01:03:50;3.00;99.90
8067;DHT22;4076;48.076;9.118;2023-04-21T01:06:17;3.00;99.90
8067;DHT22;4076;48.076;9.118;2023-04-21T01:08:47;3.00;99.90
8067;DHT22;4076;48.076;9.118;2023-04-21T01:11:14;3.00;99.90
8067;DHT22;4076;48.076;9.118;2023-04-21T01:13:39;3.00;99.90
8067;DHT22;4076;48.076;9.118;2023-04-21T01:16:06;2.90;99.90
8067;DHT22;4076;48.076;9.118;2023-04-21T01:18:32;2.90;99.90
8067;DHT22;4076;48.076;9.118;2023-04-21T01:20:58;2.90;99.90
8067;DHT22;4076;48.076;9.118;2023-04-21T01:23:24;2.90;99.90
8067;DHT22;4076;48.076;9.118;2023-04-21T01:25:50;2.80;99.90
8067;DHT22;4076;48.076;9.118;2023-04-21T01:28:23;2.80;99.90
8067;DHT22;4076;48.076;9.118;2023-04-21T01:30:49;2.80;99.90
8067;DHT22;4076;48.076;9.118;2023-04-21T01:33:16;2.80;99.90
8067;DHT22;4076;48.076;9.118;2023-04-21T01:35:41;2.80;99.90
8067;DHT22;4076;48.076;9.118;2023-04-21T01:38:07;2.80;99.90
8067;DHT22;4076;48.076;9.118;2023-04-21T01:40:33;2.80;99.90
8067;DHT22;4076;48.076;9.118;2023-04-21T01:42:59;2.70;99.90
8067;DHT22;4076;48.076;9.118;2023-04-21T01:45:25;2.70;99.90
8067;DHT22;4076;48.076;9.118;2023-04-21T01:47:50;2.70;99.90
8067;DHT22;4076;48.076;9.118;2023-04-21T01:50:16;2.70;99.90
8067;DHT22;4076;48.076;9.118;2023-04-21T01:52:42;2.60;99.90
8067;DHT22;4076;48.076;9.118;2023-04-21T01:55:08;2.70;99.90
8067;DHT22;4076;48.076;9.118;2023-04-21T01:57:34;2.70;99.90
8067;DHT22;4076;48.076;9.118;2023-04-21T02:00:00;2.70;99.90
8067;DHT22;4076;48.076;9.118;2023-04-21T02:02:26;2.70;99.90
8067;DHT22;4076;48.076;9.118;2023-04-21T02:04:52;2.70;99.90
8067;DHT22;4076;48.076;9.118;2023-04-21T02:07:17;2.70;99.90
8067;DHT22;4076;48.076;9.118;2023-04-21T02:09:43;2.70;99.90
8067;DHT22;4076;48.076;9.118;2023-04-21T02:12:09;2.80;99.90
8067;DHT22;4076;48.076;9.118;2023-04-21T02:14:36;2.80;99.90
8067;DHT22;4076;48.076;9.118;2023-04-21T02:17:02;2.80;99.90
8067;DHT22;4076;48.076;9.118;2023-04-21T02:19:28;2.70;99.90
8067;DHT22;4076;48.076;9.118;2023-04-21T02:21:54;2.70;99.90
8067;DHT22;4076;48.076;9.118;2023-04-21T02:24:20;2.70;99.90
8067;DHT22;4076;48.076;9.118;2023-04-21T02:26:45;2.70;99.90
8067;DHT22;4076;48.076;9.118;2023-04-21T02:29:11;2.70;99.90
8067;DHT22;4076;48.076;9.118;2023-04-21T02:31:37;2.60;99.90
8067;DHT22;4076;48.076;9.118;2023-04-21T02:34:02;2.60;99.90
8067;DHT22;4076;48.076;9.118;2023-04-21T02:36:28;2.60;99.90
8067;DHT22;4076;48.076;9.118;2023-04-21T02:38:54;2.60;99.90
8067;DHT22;4076;48.076;9.118;2023-04-21T02:41:19;2.60;99.90
8067;DHT22;4076;48.076;9.118;2023-04-21T02:43:45;2.60;99.90
8067;DHT22;4076;48.076;9.118;2023-04-21T02:46:11;2.60;99.90
8067;DHT22;4076;48.076;9.118;2023-04-21T02:48:36;2.60;99.90
8067;DHT22;4076;48.076;9.118;2023-04-21T02:51:02;2.60;99.90
8067;DHT22;4076;48.076;9.118;2023-04-21T02:53:29;2.60;99.90
8067;DHT22;4076;48.076;9.118;2023-04-21T02:55:54;2.60;99.90
8067;DHT22;4076;48.076;9.118;2023-04-21T02:58:20;2.60;99.90
8067;DHT22;4076;48.076;9.118;2023-04-21T03:00:46;2.60;99.90
8067;DHT22;4076;48.076;9.118;2023-04-21T03:03:13;2.60;99.90
8067;DHT22;4076;48.076;9.118;2023-04-21T03:05:39;2.60;99.90
8067;DHT22;4076;48.076;9.118;2023-04-21T03:08:06;2.60;99.90
8067;DHT22;4076;48.076;9.118;2023-04-21T03:10:31;2.60;99.90
8067;DHT22;4076;48.076;9.118;2023-04-21T03:12:57;2.60;99.90
8067;DHT22;4076;48.076;9.118;2023-04-21T03:15:22;2.60;99.90
8067;DHT22;4076;48.076;9.118;2023-04-21T03:17:48;2.60;99.90
8067;DHT22;4076;48.076;9.118;2023-04-21T03:20:14;2.60;99.90
8067;DHT22;4076;48.076;9.118;2023-04-21T03:22:40;2.50;99.90
8067;DHT22;4076;48.076;9.118;2023-04-21T03:25:06;2.50;99.90
8067;DHT22;4076;48.076;9.118;2023-04-21T03:27:33;2.50;99.90
8067;DHT22;4076;48.076;9.118;2023-04-21T03:29:59;2.60;99.90
8067;DHT22;4076;48.076;9.118;2023-04-21T03:32:24;2.60;99.90
8067;DHT22;4076;48.076;9.118;2023-04-21T03:34:50;2.60;99.90
8067;DHT22;4076;48.076;9.118;2023-04-21T03:37:16;2.60;99.90
8067;DHT22;4076;48.076;9.118;2023-04-21T03:39:41;2.60;99.90
8067;DHT22;4076;48.076;9.118;2023-04-21T03:42:07;2.60;99.90
8067;DHT22;4076;48.076;9.118;2023-04-21T03:44:33;2.60;99.90
8067;DHT22;4076;48.076;9.118;2023-04-21T03:46:59;2.60;99.90
8067;DHT22;4076;48.076;9.118;2023-04-21T03:49:24;2.60;99.90
8067;DHT22;4076;48.076;9.118;2023-04-21T03:51:50;2.60;99.90
8067;DHT22;4076;48.076;9.118;2023-04-21T03:54:16;2.60;99.90
8067;DHT22;4076;48.076;9.118;2023-04-21T03:56:41;2.60;99.90
8067;DHT22;4076;48.076;9.118;2023-04-21T03:59:07;2.60;99.90
8067;DHT22;4076;48.076;9.118;2023-04-21T04:01:33;2.60;99.90
8067;DHT22;4076;48.076;9.118;2023-04-21T04:03:59;2.60;99.90
8067;DHT22;4076;48.076;9.118;2023-04-21T04:06:24;2.60;99.90
8067;DHT22;4076;48.076;9.118;2023-04-21T04:08:50;2.70;99.90
8067;DHT22;4076;48.076;9.118;2023-04-21T04:11:16;2.70;99.90
8067;DHT22;4076;48.076;9.118;2023-04-21T04:13:42;2.60;99.90
8067;DHT22;4076;48.076;9.118;2023-04-21T04:16:07;2.60;99.90
8067;DHT22;4076;48.076;9.118;2023-04-21T04:18:33;2.60;99.90
8067;DHT22;4076;48.076;9.118;2023-04-21T04:21:04;2.60;99.90
8067;DHT22;4076;48.076;9.118;2023-04-21T04:23:30;2.60;99.90
8067;DHT22;4076;48.076;9.118;2023-04-21T04:25:56;2.60;99.90
8067;DHT22;4076;48.076;9.118;2023-04-21T04:28:21;2.70;99.90
8067;DHT22;4076;48.076;9.118;2023-04-21T04:30:47;2.70;99.90
8067;DHT22;4076;48.076;9.118;2023-04-21T04:33:13;2.70;99.90
8067;DHT22;4076;48.076;9.118;2023-04-21T04:35:38;2.70;99.90
8067;DHT22;4076;48.076;9.118;2023-04-21T04:38:04;2.70;99.90
8067;DHT22;4076;48.076;9.118;2023-04-21T04:40:32;2.80;99.90
8067;DHT22;4076;48.076;9.118;2023-04-21T04:42:58;2.80;99.90
8067;DHT22;4076;48.076;9.118;2023-04-21T04:45:25;2.80;99.90
8067;DHT22;4076;48.076;9.118;2023-04-21T04:47:51;2.70;99.90
8067;DHT22;4076;48.076;9.118;2023-04-21T04:50:17;2.80;99.90
8067;DHT22;4076;48.076;9.118;2023-04-21T04:52:42;2.70;99.90
8067;DHT22;4076;48.076;9.118;2023-04-21T04:55:11;2.70;99.90
8067;DHT22;4076;48.076;9.118;2023-04-21T04:57:37;2.70;99.90
8067;DHT22;4076;48.076;9.118;2023-04-21T05:00:05;2.80;99.90
8067;DHT22;4076;48.076;9.118;2023-04-21T05:02:31;2.80;99.90
8067;DHT22;4076;48.076;9.118;2023-04-21T05:04:57;2.80;99.90
8067;DHT22;4076;48.076;9.118;2023-04-21T05:07:22;2.80;99.90
8067;DHT22;4076;48.076;9.118;2023-04-21T05:09:48;2.80;99.90
8067;DHT22;4076;48.076;9.118;2023-04-21T05:12:13;2.90;99.90
8067;DHT22;4076;48.076;9.118;2023-04-21T05:14:39;2.90;99.90
8067;DHT22;4076;48.076;9.118;2023-04-21T05:17:05;3.00;99.90
8067;DHT22;4076;48.076;9.118;2023-04-21T05:19:30;3.10;99.90
8067;DHT22;4076;48.076;9.118;2023-04-21T05:21:59;3.20;99.90
8067;DHT22;4076;48.076;9.118;2023-04-21T05:24:27;3.20;99.90
8067;DHT22;4076;48.076;9.118;2023-04-21T05:26:53;3.20;99.90
8067;DHT22;4076;48.076;9.118;2023-04-21T05:29:19;3.30;99.90
8067;DHT22;4076;48.076;9.118;2023-04-21T05:31:45;3.30;99.90
8067;DHT22;4076;48.076;9.118;2023-04-21T05:34:11;3.30;99.90
8067;DHT22;4076;48.076;9.118;2023-04-21T05:36:39;3.30;99.90
8067;DHT22;4076;48.076;9.118;2023-04-21T05:39:05;3.30;99.90
8067;DHT22;4076;48.076;9.118;2023-04-21T05:41:30;3.30;99.90
8067;DHT22;4076;48.076;9.118;2023-04-21T05:43:56;3.30;99.90
8067;DHT22;4076;48.076;9.118;2023-04-21T05:46:21;3.30;99.90
8067;DHT22;4076;48.076;9.118;2023-04-21T05:48:47;3.20;99.90
8067;DHT22;4076;48.076;9.118;2023-04-21T05:51:13;3.20;99.90
8067;DHT22;4076;48.076;9.118;2023-04-21T05:53:44;3.20;99.90
8067;DHT22;4076;48.076;9.118;2023-04-21T05:56:11;3.10;99.90
8067;DHT22;4076;48.076;9.118;2023-04-21T05:58:37;3.10;99.90
8067;DHT22;4076;48.076;9.118;2023-04-21T06:01:03;3.10;99.90
8067;DHT22;4076;48.076;9.118;2023-04-21T06:03:31;3.20;99.90
8067;DHT22;4076;48.076;9.118;2023-04-21T06:05:59;3.30;99.90
8067;DHT22;4076;48.076;9.118;2023-04-21T06:08:25;3.30;99.90
8067;DHT22;4076;48.076;9.118;2023-04-21T06:10:51;3.30;99.90
8067;DHT22;4076;48.076;9.118;2023-04-21T06:13:16;3.50;99.90
8067;DHT22;4076;48.076;9.118;2023-04-21T06:15:42;3.90;99.90
8067;DHT22;4076;48.076;9.118;2023-04-21T06:18:08;4.80;99.90
8067;DHT22;4076;48.076;9.118;2023-04-21T06:20:33;5.60;99.90
8067;DHT22;4076;48.076;9.118;2023-04-21T06:22:59;6.30;99.90
8067;DHT22;4076;48.076;9.118;2023-04-21T06:25:25;7.10;99.90
8067;DHT22;4076;48.076;9.118;2023-04-21T06:27:50;7.60;99.90
8067;DHT22;4076;48.076;9.118;2023-04-21T06:30:16;8.00;99.90
8067;DHT22;4076;48.076;9.118;2023-04-21T06:32:42;8.50;99.90
8067;DHT22;4076;48.076;9.118;2023-04-21T06:35:10;8.70;99.90
8067;DHT22;4076;48.076;9.118;2023-04-21T06:37:36;8.80;99.90
8067;DHT22;4076;48.076;9.118;2023-04-21T06:40:02;8.80;99.90
8067;DHT22;4076;48.076;9.118;2023-04-21T06:42:27;9.20;99.90
8067;DHT22;4076;48.076;9.118;2023-04-21T06:44:53;8.90;99.90
8067;DHT22;4076;48.076;9.118;2023-04-21T06:47:20;8.70;99.90
8067;DHT22;4076;48.076;9.118;2023-04-21T06:49:46;8.40;99.90
8067;DHT22;4076;48.076;9.118;2023-04-21T06:52:12;8.30;99.90
8067;DHT22;4076;48.076;9.118;2023-04-21T06:54:38;8.30;99.90
8067;DHT22;4076;48.076;9.118;2023-04-21T06:57:03;8.40;99.90
8067;DHT22;4076;48.076;9.118;2023-04-21T06:59:34;9.00;99.90
8067;DHT22;4076;48.076;9.118;2023-04-21T07:02:07;10.20;99.90
8067;DHT22;4076;48.076;9.118;2023-04-21T07:04:35;10.70;99.90
8067;DHT22;4076;48.076;9.118;2023-04-21T07:07:07;11.40;99.90
8067;DHT22;4076;48.076;9.118;2023-04-21T07:09:33;11.90;99.90
8067;DHT22;4076;48.076;9.118;2023-04-21T07:11:59;12.10;99.90
8067;DHT22;4076;48.076;9.118;2023-04-21T07:14:25;12.00;99.90
8067;DHT22;4076;48.076;9.118;2023-04-21T07:16:51;11.70;99.90
8067;DHT22;4076;48.076;9.118;2023-04-21T07:19:16;11.60;99.90
8067;DHT22;4076;48.076;9.118;2023-04-21T07:21:42;11.60;99.90
8067;DHT22;4076;48.076;9.118;2023-04-21T07:24:08;11.60;99.90
8067;DHT22;4076;48.076;9.118;2023-04-21T07:26:34;11.60;98.40
8067;DHT22;4076;48.076;9.118;2023-04-21T07:28:59;11.40;98.40
8067;DHT22;4076;48.076;9.118;2023-04-21T07:31:25;11.20;98.80
8067;DHT22;4076;48.076;9.118;2023-04-21T07:33:51;10.90;97.70
8067;DHT22;4076;48.076;9.118;2023-04-21T07:36:16;10.60;99.40
8067;DHT22;4076;48.076;9.118;2023-04-21T07:38:43;10.70;99.90
8067;DHT22;4076;48.076;9.118;2023-04-21T07:41:12;10.90;99.00
8067;DHT22;4076;48.076;9.118;2023-04-21T07:43:38;11.00;99.40
8067;DHT22;4076;48.076;9.118;2023-04-21T07:46:05;11.20;99.00
8067;DHT22;4076;48.076;9.118;2023-04-21T07:48:30;11.70;99.70
8067;DHT22;4076;48.076;9.118;2023-04-21T07:50:56;12.40;97.20
8067;DHT22;4076;48.076;9.118;2023-04-21T07:53:28;13.70;92.90
8067;DHT22;4076;48.076;9.118;2023-04-21T07:55:54;14.70;92.20
8067;DHT22;4076;48.076;9.118;2023-04-21T07:58:21;15.70;90.30
8067;DHT22;4076;48.076;9.118;2023-04-21T08:00:47;17.90;71.90
8067;DHT22;4076;48.076;9.118;2023-04-21T08:03:13;20.20;63.10
8067;DHT22;4076;48.076;9.118;2023-04-21T08:05:38;22.70;59.90
8067;DHT22;4076;48.076;9.118;2023-04-21T08:08:04;24.10;47.20
8067;DHT22;4076;48.076;9.118;2023-04-21T08:10:30;25.60;44.10
8067;DHT22;4076;48.076;9.118;2023-04-21T08:12:55;26.70;41.40
8067;DHT22;4076;48.076;9.118;2023-04-21T08:15:21;26.70;39.80
8067;DHT22;4076;48.076;9.118;2023-04-21T08:17:47;25.40;38.50
8067;DHT22;4076;48.076;9.118;2023-04-21T08:20:12;24.50;39.90
8067;DHT22;4076;48.076;9.118;2023-04-21T08:22:38;23.40;39.60
8067;DHT22;4076;48.076;9.118;2023-04-21T08:25:04;22.00;40.30
8067;DHT22;4076;48.076;9.118;2023-04-21T08:27:30;20.30;41.80
8067;DHT22;4076;48.076;9.118;2023-04-21T08:29:56;18.70;42.40
8067;DHT22;4076;48.076;9.118;2023-04-21T08:32:22;17.60;44.80
8067;DHT22;4076;48.076;9.118;2023-04-21T08:34:54;17.10;47.60
8067;DHT22;4076;48.076;9.118;2023-04-21T08:37:20;18.50;48.80
8067;DHT22;4076;48.076;9.118;2023-04-21T08:39:46;19.30;46.40
8067;DHT22;4076;48.076;9.118;2023-04-21T08:42:13;21.20;46.40
8067;DHT22;4076;48.076;9.118;2023-04-21T08:44:42;23.40;43.00
8067;DHT22;4076;48.076;9.118;2023-04-21T08:47:11;23.20;40.60
8067;DHT22;4076;48.076;9.118;2023-04-21T08:49:38;21.90;40.30
8067;DHT22;4076;48.076;9.118;2023-04-21T08:52:05;21.50;42.00
8067;DHT22;4076;48.076;9.118;2023-04-21T08:54:31;23.50;43.20
8067;DHT22;4076;48.076;9.118;2023-04-21T08:56:57;25.20;41.20
8067;DHT22;4076;48.076;9.118;2023-04-21T08:59:23;26.20;37.40
8067;DHT22;4076;48.076;9.118;2023-04-21T09:02:11;26.60;37.00
8067;DHT22;4076;48.076;9.118;2023-04-21T09:04:48;27.60;36.60
8067;DHT22;4076;48.076;9.118;2023-04-21T09:07:37;29.50;39.10
8067;DHT22;4076;48.076;9.118;2023-04-21T09:10:06;31.00;37.40
8067;DHT22;4076;48.076;9.118;2023-04-21T09:12:32;32.60;38.60
8067;DHT22;4076;48.076;9.118;2023-04-21T09:14:58;33.60;38.60
8067;DHT22;4076;48.076;9.118;2023-04-21T09:20:16;34.70;38.20
8067;DHT22;4076;48.076;9.118;2023-04-21T09:22:42;35.20;39.90
8067;DHT22;4076;48.076;9.118;2023-04-21T09:25:08;33.00;35.80
8067;DHT22;4076;48.076;9.118;2023-04-21T09:27:36;30.10;31.40
8067;DHT22;4076;48.076;9.118;2023-04-21T09:30:03;28.10;37.60
8067;DHT22;4076;48.076;9.118;2023-04-21T09:32:35;28.00;70.90
8067;DHT22;4076;48.076;9.118;2023-04-21T09:35:02;28.90;41.40
8067;DHT22;4076;48.076;9.118;2023-04-21T09:37:31;29.10;38.70
8067;DHT22;4076;48.076;9.118;2023-04-21T09:39:58;30.10;37.50
8067;DHT22;4076;48.076;9.118;2023-04-21T09:42:31;31.30;36.60
8067;DHT22;4076;48.076;9.118;2023-04-21T09:44:57;32.20;36.20
8067;DHT22;4076;48.076;9.118;2023-04-21T09:47:23;32.60;35.90
8067;DHT22;4076;48.076;9.118;2023-04-21T09:49:51;32.10;36.30
8067;DHT22;4076;48.076;9.118;2023-04-21T09:55:08;28.40;54.30
8067;DHT22;4076;48.076;9.118;2023-04-21T09:57:37;26.40;39.20
8067;DHT22;4076;48.076;9.118;2023-04-21T10:00:05;25.00;35.20
8067;DHT22;4076;48.076;9.118;2023-04-21T10:02:34;23.70;36.20
8067;DHT22;4076;48.076;9.118;2023-04-21T10:05:03;22.60;37.20
8067;DHT22;4076;48.076;9.118;2023-04-21T10:07:29;21.70;38.40
8067;DHT22;4076;48.076;9.118;2023-04-21T10:09:55;20.80;39.00
8067;DHT22;4076;48.076;9.118;2023-04-21T10:12:24;20.30;40.20
8067;DHT22;4076;48.076;9.118;2023-04-21T10:14:51;19.90;40.80
8067;DHT22;4076;48.076;9.118;2023-04-21T10:17:23;19.70;41.90
8067;DHT22;4076;48.076;9.118;2023-04-21T10:19:54;19.40;42.30
8067;DHT22;4076;48.076;9.118;2023-04-21T10:22:30;19.30;43.80
8067;DHT22;4076;48.076;9.118;2023-04-21T10:24:58;18.90;42.80
8067;DHT22;4076;48.076;9.118;2023-04-21T10:30:01;18.90;44.80
8067;DHT22;4076;48.076;9.118;2023-04-21T10:32:42;19.00;45.20
8067;DHT22;4076;48.076;9.118;2023-04-21T10:35:10;18.70;44.40
8067;DHT22;4076;48.076;9.118;2023-04-21T10:37:37;18.70;44.80
8067;DHT22;4076;48.076;9.118;2023-04-21T10:40:05;18.80;45.00
8067;DHT22;4076;48.076;9.118;2023-04-21T10:42:34;18.80;45.50
8067;DHT22;4076;48.076;9.118;2023-04-21T10:45:05;18.70;46.20
8067;DHT22;4076;48.076;9.118;2023-04-21T10:47:48;18.60;45.30
8067;DHT22;4076;48.076;9.118;2023-04-21T10:50:27;18.20;45.50
8067;DHT22;4076;48.076;9.118;2023-04-21T10:53:17;18.00;46.50
8067;DHT22;4076;48.076;9.118;2023-04-21T10:55:47;17.80;47.10
8067;DHT22;4076;48.076;9.118;2023-04-21T10:58:14;17.60;47.30
8067;DHT22;4076;48.076;9.118;2023-04-21T11:00:40;17.60;47.90
8067;DHT22;4076;48.076;9.118;2023-04-21T11:03:07;17.70;48.00
8067;DHT22;4076;48.076;9.118;2023-04-21T11:05:38;17.60;47.90
8067;DHT22;4076;48.076;9.118;2023-04-21T11:08:09;17.50;48.60
8067;DHT22;4076;48.076;9.118;2023-04-21T11:10:54;17.40;48.00
8067;DHT22;4076;48.076;9.118;2023-04-21T11:13:25;17.10;48.60
8067;DHT22;4076;48.076;9.118;2023-04-21T11:16:02;17.00;49.10
8067;DHT22;4076;48.076;9.118;2023-04-21T11:18:38;16.80;49.00
8067;DHT22;4076;48.076;9.118;2023-04-21T11:21:12;16.70;49.90
8067;DHT22;4076;48.076;9.118;2023-04-21T11:23:51;16.60;50.00
8067;DHT22;4076;48.076;9.118;2023-04-21T11:26:17;16.50;51.40
8067;DHT22;4076;48.076;9.118;2023-04-21T11:28:47;16.60;50.70
8067;DHT22;4076;48.076;9.118;2023-04-21T11:31:14;16.80;50.60
8067;DHT22;4076;48.076;9.118;2023-04-21T11:33:39;16.60;51.00
8067;DHT22;4076;48.076;9.118;2023-04-21T11:36:06;16.60;51.60
8067;DHT22;4076;48.076;9.118;2023-04-21T11:38:39;16.50;51.20
8067;DHT22;4076;48.076;9.118;2023-04-21T11:41:05;16.40;51.00
8067;DHT22;4076;48.076;9.118;2023-04-21T11:43:31;16.30;51.90
8067;DHT22;4076;48.076;9.118;2023-04-21T11:46:15;16.30;52.00
8067;DHT22;4076;48.076;9.118;2023-04-21T11:48:42;16.30;52.60
8067;DHT22;4076;48.076;9.118;2023-04-21T11:51:17;16.40;52.50
8067;DHT22;4076;48.076;9.118;2023-04-21T11:53:46;16.50;52.50
8067;DHT22;4076;48.076;9.118;2023-04-21T11:56:16;16.60;52.70
8067;DHT22;4076;48.076;9.118;2023-04-21T11:58:43;16.60;52.30
8067;DHT22;4076;48.076;9.118;2023-04-21T12:01:10;16.70;52.40
8067;DHT22;4076;48.076;9.118;2023-04-21T12:03:36;16.60;52.80
8067;DHT22;4076;48.076;9.118;2023-04-21T12:06:01;16.60;52.60
8067;DHT22;4076;48.076;9.118;2023-04-21T12:08:30;16.50;53.10
8067;DHT22;4076;48.076;9.118;2023-04-21T12:10:56;16.50;53.10
8067;DHT22;4076;48.076;9.118;2023-04-21T12:13:24;16.40;53.40
8067;DHT22;4076;48.076;9.118;2023-04-21T12:15:51;16.30;54.00
8067;DHT22;4076;48.076;9.118;2023-04-21T12:18:17;16.30;54.00
8067;DHT22;4076;48.076;9.118;2023-04-21T12:20:52;16.30;54.40
8067;DHT22;4076;48.076;9.118;2023-04-21T12:23:18;16.30;54.60
8067;DHT22;4076;48.076;9.118;2023-04-21T12:25:45;16.30;55.10
8067;DHT22;4076;48.076;9.118;2023-04-21T12:28:12;16.30;55.00
8067;DHT22;4076;48.076;9.118;2023-04-21T12:30:39;16.20;55.00
8067;DHT22;4076;48.076;9.118;2023-04-21T12:33:06;16.20;55.00
8067;DHT22;4076;48.076;9.118;2023-04-21T12:35:32;16.20;55.10
8067;DHT22;4076;48.076;9.118;2023-04-21T12:37:58;16.20;55.10
8067;DHT22;4076;48.076;9.118;2023-04-21T12:40:23;16.20;55.00
8067;DHT22;4076;48.076;9.118;2023-04-21T12:42:49;16.20;55.10
8067;DHT22;4076;48.076;9.118;2023-04-21T12:45:15;16.20;56.00
8067;DHT22;4076;48.076;9.118;2023-04-21T12:47:41;16.20;56.00
8067;DHT22;4076;48.076;9.118;2023-04-21T12:50:07;16.30;56.10
8067;DHT22;4076;48.076;9.118;2023-04-21T12:52:34;16.30;55.90
8067;DHT22;4076;48.076;9.118;2023-04-21T12:55:00;16.40;57.30
8067;DHT22;4076;48.076;9.118;2023-04-21T12:57:26;16.50;56.30
8067;DHT22;4076;48.076;9.118;2023-04-21T12:59:51;16.60;56.30
8067;DHT22;4076;48.076;9.118;2023-04-21T13:02:17;16.60;56.50
8067;DHT22;4076;48.076;9.118;2023-04-21T13:04:43;16.70;56.90
8067;DHT22;4076;48.076;9.118;2023-04-21T13:07:08;16.80;55.70
8067;DHT22;4076;48.076;9.118;2023-04-21T13:09:34;16.80;54.60
8067;DHT22;4076;48.076;9.118;2023-04-21T13:12:00;16.80;54.30
8067;DHT22;4076;48.076;9.118;2023-04-21T13:14:26;16.80;55.90
8067;DHT22;4076;48.076;9.118;2023-04-21T13:16:52;16.80;55.90
8067;DHT22;4076;48.076;9.118;2023-04-21T13:19:18;16.90;55.50
8067;DHT22;4076;48.076;9.118;2023-04-21T13:21:44;16.90;55.60
8067;DHT22;4076;48.076;9.118;2023-04-21T13:24:09;17.00;55.40
8067;DHT22;4076;48.076;9.118;2023-04-21T13:26:36;17.10;55.80
8067;DHT22;4076;48.076;9.118;2023-04-21T13:29:02;17.30;55.10
8067;DHT22;4076;48.076;9.118;2023-04-21T13:31:28;17.50;55.00
8067;DHT22;4076;48.076;9.118;2023-04-21T13:33:53;17.80;55.20
8067;DHT22;4076;48.076;9.118;2023-04-21T13:36:19;18.10;54.40
8067;DHT22;4076;48.076;9.118;2023-04-21T13:38:45;18.30;54.50
8067;DHT22;4076;48.076;9.118;2023-04-21T13:41:12;18.60;54.20
8067;DHT22;4076;48.076;9.118;2023-04-21T13:43:38;18.80;53.60
8067;DHT22;4076;48.076;9.118;2023-04-21T13:46:04;18.80;51.70
8067;DHT22;4076;48.076;9.118;2023-04-21T13:48:30;18.90;51.60
8067;DHT22;4076;48.076;9.118;2023-04-21T13:50:56;19.00;52.00
8067;DHT22;4076;48.076;9.118;2023-04-21T13:53:22;19.00;52.00
8067;DHT22;4076;48.076;9.118;2023-04-21T13:55:48;19.10;51.20
8067;DHT22;4076;48.076;9.118;2023-04-21T13:58:14;19.00;51.50
8067;DHT22;4076;48.076;9.118;2023-04-21T14:00:41;18.90;51.50
8067;DHT22;4076;48.076;9.118;2023-04-21T14:03:06;18.90;51.50
8067;DHT22;4076;48.076;9.118;2023-04-21T14:05:32;19.00;51.20
8067;DHT22;4076;48.076;9.118;2023-04-21T14:07:58;19.00;50.80
8067;DHT22;4076;48.076;9.118;2023-04-21T14:10:24;19.00;51.10
8067;DHT22;4076;48.076;9.118;2023-04-21T14:12:50;19.10;50.30
8067;DHT22;4076;48.076;9.118;2023-04-21T14:15:16;19.10;49.90
8067;DHT22;4076;48.076;9.118;2023-04-21T14:17:41;19.10;50.00
8067;DHT22;4076;48.076;9.118;2023-04-21T14:20:07;19.00;49.90
8067;DHT22;4076;48.076;9.118;2023-04-21T14:22:36;18.80;50.10
8067;DHT22;4076;48.076;9.118;2023-04-21T14:25:02;18.60;51.00
8067;DHT22;4076;48.076;9.118;2023-04-21T14:27:28;18.50;52.00
8067;DHT22;4076;48.076;9.118;2023-04-21T14:29:53;18.30;52.90
8067;DHT22;4076;48.076;9.118;2023-04-21T14:32:19;18.10;53.20
8067;DHT22;4076;48.076;9.118;2023-04-21T14:34:46;17.90;53.30
8067;DHT22;4076;48.076;9.118;2023-04-21T14:37:11;17.90;53.60
8067;DHT22;4076;48.076;9.118;2023-04-21T14:39:37;17.90;54.00
8067;DHT22;4076;48.076;9.118;2023-04-21T14:42:03;17.90;54.10
8067;DHT22;4076;48.076;9.118;2023-04-21T14:44:28;17.90;54.80
8067;DHT22;4076;48.076;9.118;2023-04-21T14:46:54;18.00;54.90
8067;DHT22;4076;48.076;9.118;2023-04-21T14:49:20;18.00;54.60
8067;DHT22;4076;48.076;9.118;2023-04-21T14:51:46;18.00;55.30
8067;DHT22;4076;48.076;9.118;2023-04-21T14:54:13;18.00;55.50
8067;DHT22;4076;48.076;9.118;2023-04-21T14:56:40;18.00;54.30
8067;DHT22;4076;48.076;9.118;2023-04-21T14:59:05;18.00;54.40
8067;DHT22;4076;48.076;9.118;2023-04-21T15:01:31;18.10;54.60
8067;DHT22;4076;48.076;9.118;2023-04-21T15:03:57;18.10;54.80
8067;DHT22;4076;48.076;9.118;2023-04-21T15:06:24;18.20;55.10
8067;DHT22;4076;48.076;9.118;2023-04-21T15:08:52;18.10;55.70
8067;DHT22;4076;48.076;9.118;2023-04-21T15:11:18;18.10;54.80
8067;DHT22;4076;48.076;9.118;2023-04-21T15:13:44;18.10;53.60
8067;DHT22;4076;48.076;9.118;2023-04-21T15:16:10;18.10;52.70
8067;DHT22;4076;48.076;9.118;2023-04-21T15:18:35;18.00;52.20
8067;DHT22;4076;48.076;9.118;2023-04-21T15:21:01;17.80;52.60
8067;DHT22;4076;48.076;9.118;2023-04-21T15:23:27;17.70;52.60
8067;DHT22;4076;48.076;9.118;2023-04-21T15:25:54;17.50;52.00
8067;DHT22;4076;48.076;9.118;2023-04-21T15:28:19;17.40;52.00
8067;DHT22;4076;48.076;9.118;2023-04-21T15:30:45;17.00;51.20
8067;DHT22;4076;48.076;9.118;2023-04-21T15:33:11;16.70;51.80
8067;DHT22;4076;48.076;9.118;2023-04-21T15:35:36;16.60;52.90
8067;DHT22;4076;48.076;9.118;2023-04-21T15:38:02;16.40;52.90
8067;DHT22;4076;48.076;9.118;2023-04-21T15:40:28;16.40;53.50
8067;DHT22;4076;48.076;9.118;2023-04-21T15:42:54;16.40;54.00
8067;DHT22;4076;48.076;9.118;2023-04-21T15:45:20;16.50;54.00
8067;DHT22;4076;48.076;9.118;2023-04-21T15:47:45;16.40;53.90
8067;DHT22;4076;48.076;9.118;2023-04-21T15:50:11;16.50;54.30
8067;DHT22;4076;48.076;9.118;2023-04-21T15:52:37;16.50;54.00
8067;DHT22;4076;48.076;9.118;2023-04-21T15:55:07;16.50;54.70
8067;DHT22;4076;48.076;9.118;2023-04-21T15:57:32;16.50;53.60
8067;DHT22;4076;48.076;9.118;2023-04-21T15:59:58;16.50;53.70
8067;DHT22;4076;48.076;9.118;2023-04-21T16:02:24;16.50;54.60
8067;DHT22;4076;48.076;9.118;2023-04-21T16:04:49;16.50;54.60
8067;DHT22;4076;48.076;9.118;2023-04-21T16:07:16;16.50;54.60
8067;DHT22;4076;48.076;9.118;2023-04-21T16:09:42;16.50;54.90
8067;DHT22;4076;48.076;9.118;2023-04-21T16:12:07;16.50;55.20
8067;DHT22;4076;48.076;9.118;2023-04-21T16:14:35;16.40;55.30